createdAt,value
2022-08-10T00:02:10.045Z,72.80
2022-08-10T00:06:12.994Z,73.20
2022-08-10T00:10:17.761Z,73.40
2022-08-10T00:14:20.846Z,74.30
2022-08-10T00:18:34.570Z,74.30
2022-08-10T00:22:48.920Z,74.90
2022-08-10T00:27:50.066Z,75.60
2022-08-10T00:31:23.316Z,76.30
2022-08-10T00:35:27.625Z,76.50
2022-08-10T00:39:36.156Z,76.60
2022-08-10T00:43:42.111Z,75.50
2022-08-10T00:47:45.070Z,74.10
2022-08-10T00:51:49.369Z,73.50
2022-08-10T00:57:12.181Z,72.80
2022-08-10T01:00:15.744Z,71.70
2022-08-10T01:04:36.426Z,70.70
2022-08-10T01:08:50.640Z,70.80
2022-08-10T01:12:59.568Z,70.20
2022-08-10T01:17:07.715Z,71.30
2022-08-10T01:21:53.860Z,72.00
2022-08-10T01:26:13.037Z,73.70
2022-08-10T01:30:36.284Z,74.10
2022-08-10T01:34:49.830Z,75.80
2022-08-10T01:38:53.719Z,77.20
2022-08-10T01:43:07.833Z,78.00
2022-08-10T01:47:33.421Z,78.90
2022-08-10T01:51:41.318Z,79.60
2022-08-10T01:55:45.153Z,79.70
2022-08-10T01:59:58.568Z,80.20
2022-08-10T02:04:13.930Z,79.80
2022-08-10T02:08:18.620Z,79.30
2022-08-10T02:12:25.427Z,78.00
2022-08-10T02:16:29.303Z,78.00
2022-08-10T02:20:36.549Z,77.80
2022-08-10T02:24:41.801Z,76.70
2022-08-10T02:28:45.385Z,76.00
2022-08-10T02:32:52.849Z,75.10
2022-08-10T02:36:59.374Z,74.20
2022-08-10T02:42:18.429Z,73.50
2022-08-10T02:45:39.361Z,72.80
2022-08-10T02:49:47.972Z,72.30
2022-08-10T02:53:57.345Z,72.20
2022-08-10T02:58:12.624Z,71.90
2022-08-10T03:02:26.215Z,72.00
2022-08-10T03:06:35.626Z,72.20
2022-08-10T03:10:45.783Z,72.40
2022-08-10T03:14:51.552Z,72.80
2022-08-10T03:18:57.072Z,73.00
2022-08-10T03:23:01.099Z,73.90
2022-08-10T03:27:06.552Z,74.70
2022-08-10T03:31:09.903Z,75.20
2022-08-10T03:35:13.972Z,75.00
2022-08-10T03:39:17.120Z,75.70
2022-08-10T03:43:23.198Z,76.20
2022-08-10T03:47:27.725Z,76.50
2022-08-10T03:51:32.050Z,77.30
2022-08-10T03:56:29.412Z,77.50
2022-08-10T03:59:59.199Z,78.60
2022-08-10T04:04:13.010Z,79.20
2022-08-10T04:08:17.622Z,80.50
2022-08-10T04:12:20.799Z,80.70
2022-08-10T04:16:24.919Z,81.50
2022-08-10T04:20:34.956Z,81.50
2022-08-10T04:24:40.524Z,82.30
2022-08-10T04:28:43.932Z,82.20
2022-08-10T04:32:53.047Z,82.40
2022-08-10T04:37:02.551Z,83.00
2022-08-10T04:41:08.879Z,83.50
2022-08-10T04:45:14.007Z,83.40
2022-08-10T04:49:53.501Z,83.30
2022-08-10T04:54:05.904Z,83.50
2022-08-10T04:58:03.966Z,83.20
2022-08-10T05:02:22.435Z,83.30
2022-08-10T05:06:30.908Z,82.80
2022-08-10T05:10:33.917Z,83.20
2022-08-10T05:14:36.697Z,82.70
2022-08-10T05:18:39.514Z,82.60
2022-08-10T05:22:45.841Z,81.70
2022-08-10T05:27:00.397Z,80.40
2022-08-10T05:31:11.418Z,79.50
2022-08-10T05:39:30.969Z,68.40
2022-08-10T05:43:35.939Z,58.50
2022-08-10T05:48:55.803Z,57.80
2022-08-10T05:52:02.564Z,59.50
2022-08-10T05:56:08.475Z,61.90
2022-08-10T06:00:36.166Z,64.50
2022-08-10T06:04:40.034Z,66.20
2022-08-10T06:08:47.071Z,64.00
2022-08-10T06:13:07.332Z,63.60
2022-08-10T06:17:25.781Z,63.70
2022-08-10T06:21:29.079Z,63.20
2022-08-10T06:26:11.757Z,61.80
2022-08-10T06:29:59.396Z,61.70
2022-08-10T06:34:03.788Z,60.80
2022-08-10T06:38:08.328Z,60.30
2022-08-10T06:42:17.883Z,60.00
2022-08-10T06:46:24.619Z,59.30
2022-08-10T06:50:45.449Z,59.80
2022-08-10T06:54:58.459Z,59.30
2022-08-10T06:59:07.814Z,58.80
2022-08-10T07:03:20.606Z,58.40
2022-08-10T07:07:26.995Z,58.20
2022-08-10T07:11:32.153Z,57.80
2022-08-10T07:15:58.063Z,57.50
2022-08-10T07:20:04.337Z,56.10
2022-08-10T07:24:10.118Z,54.40
2022-08-10T07:28:15.374Z,54.40
2022-08-10T07:32:20.117Z,54.30
2022-08-10T07:36:25.755Z,53.90
2022-08-10T07:40:29.015Z,52.10
2022-08-10T07:44:33.286Z,51.00
2022-08-10T07:48:43.055Z,50.40
2022-08-10T07:52:48.815Z,48.30
2022-08-10T07:56:54.650Z,46.80
2022-08-10T08:00:59.338Z,45.70
2022-08-10T08:05:07.162Z,46.00
2022-08-10T08:09:11.841Z,45.80
2022-08-10T08:13:15.792Z,45.20
2022-08-10T08:17:20.484Z,44.70
2022-08-10T08:24:04.729Z,43.50
2022-08-10T08:25:50.737Z,42.70
2022-08-10T08:29:54.157Z,42.20
2022-08-10T08:33:58.375Z,41.70
2022-08-10T08:38:32.470Z,42.80
2022-08-10T08:42:44.845Z,42.20
2022-08-10T08:48:01.980Z,41.50
2022-08-10T08:52:12.481Z,41.40
2022-08-10T08:56:10.916Z,40.20
2022-08-10T09:00:20.882Z,41.10
2022-08-10T09:04:49.735Z,40.20
2022-08-10T09:09:23.889Z,40.60
2022-08-10T09:13:33.733Z,40.40
2022-08-10T09:17:47.559Z,40.20
2022-08-10T09:22:17.983Z,40.00
2022-08-10T09:26:23.673Z,40.00
2022-08-10T09:30:35.763Z,40.60
2022-08-10T09:36:22.032Z,40.10
2022-08-10T09:40:12.319Z,38.60
2022-08-10T09:43:57.432Z,39.30
2022-08-10T09:48:12.717Z,39.40
2022-08-10T09:52:25.745Z,37.90
2022-08-10T09:56:37.557Z,38.10
2022-08-10T10:00:48.337Z,37.90
2022-08-10T10:05:03.827Z,38.10
2022-08-10T10:09:16.394Z,38.40
2022-08-10T10:13:49.978Z,38.90
2022-08-10T10:18:03.861Z,38.50
2022-08-10T10:22:25.968Z,38.70
2022-08-10T10:26:42.220Z,37.20
2022-08-10T10:30:54.121Z,38.10
2022-08-10T10:35:03.333Z,38.10
2022-08-10T10:39:07.539Z,37.00
2022-08-10T10:43:37.056Z,37.90
2022-08-10T10:47:56.435Z,37.90
2022-08-10T10:52:10.754Z,37.40
2022-08-10T10:56:21.262Z,37.70
2022-08-10T11:00:28.741Z,38.00
2022-08-10T11:04:41.307Z,37.80
2022-08-10T11:08:52.075Z,36.80
2022-08-10T11:14:23.010Z,38.60
2022-08-10T11:17:34.891Z,37.30
2022-08-10T11:21:51.663Z,37.70
2022-08-10T11:26:00.569Z,38.00
2022-08-10T11:30:07.594Z,37.30
2022-08-10T11:34:46.822Z,37.30
2022-08-10T11:39:13.495Z,36.30
2022-08-10T11:43:21.928Z,36.60
2022-08-10T11:47:34.911Z,36.50
2022-08-10T11:51:45.138Z,36.90
2022-08-10T11:55:52.745Z,38.20
2022-08-10T11:59:59.444Z,37.70
2022-08-10T12:04:07.531Z,37.80
2022-08-10T12:10:06.001Z,37.50
2022-08-10T12:12:46.503Z,37.80
2022-08-10T12:16:52.503Z,37.20
2022-08-10T12:21:01.993Z,37.70
2022-08-10T12:25:11.553Z,37.60
2022-08-10T12:29:39.511Z,37.50
2022-08-10T12:34:01.371Z,38.30
2022-08-10T12:38:11.317Z,37.40
2022-08-10T12:42:38.658Z,36.40
2022-08-10T12:46:53.946Z,37.30
2022-08-10T12:51:01.329Z,37.20
2022-08-10T12:55:08.307Z,37.10
2022-08-10T12:59:14.637Z,37.10
2022-08-10T13:04:21.395Z,36.70
2022-08-10T13:08:24.934Z,36.10
2022-08-10T13:12:37.098Z,36.90
2022-08-10T13:16:41.661Z,37.30
2022-08-10T13:20:45.985Z,36.70
2022-08-10T13:24:55.591Z,36.80
2022-08-10T13:29:01.934Z,35.70
2022-08-10T13:33:07.497Z,36.00
2022-08-10T13:37:14.707Z,35.60
2022-08-10T13:41:19.277Z,35.20
2022-08-10T13:45:24.986Z,35.50
2022-08-10T13:49:33.536Z,35.20
2022-08-10T13:53:37.342Z,35.80
2022-08-10T13:57:46.298Z,36.10
2022-08-10T14:01:53.184Z,35.70
2022-08-10T14:05:59.555Z,35.90
2022-08-10T14:10:07.938Z,36.60
2022-08-10T14:14:18.723Z,34.90
2022-08-10T14:18:21.892Z,34.50
2022-08-10T14:22:34.163Z,34.20
2022-08-10T14:26:40.558Z,33.00
2022-08-10T14:30:46.338Z,32.20
2022-08-10T14:36:16.342Z,32.50
2022-08-10T14:39:23.238Z,32.40
2022-08-10T14:43:29.399Z,31.70
2022-08-10T14:48:03.244Z,32.00
2022-08-10T14:52:01.999Z,31.70
2022-08-10T14:56:10.151Z,31.80
2022-08-10T15:00:31.594Z,30.60
2022-08-10T15:04:38.816Z,31.60
2022-08-10T15:08:47.247Z,32.00
2022-08-10T15:12:54.181Z,31.20
2022-08-10T15:16:59.519Z,31.20
2022-08-10T15:21:04.305Z,31.00
2022-08-10T15:25:24.769Z,31.10
2022-08-10T15:29:29.926Z,30.50
2022-08-10T15:34:04.042Z,30.70
2022-08-10T15:38:09.305Z,30.30
2022-08-10T15:42:19.765Z,30.40
2022-08-10T15:46:33.711Z,31.30
2022-08-10T15:50:41.181Z,31.30
2022-08-10T15:54:54.578Z,30.60
2022-08-10T15:59:08.437Z,31.10
2022-08-10T16:03:22.536Z,31.80
2022-08-10T16:07:42.903Z,31.30
2022-08-10T16:11:59.280Z,31.40
2022-08-10T16:16:05.836Z,31.40
2022-08-10T16:20:13.987Z,31.30
2022-08-10T16:24:17.600Z,31.90
2022-08-10T16:28:23.677Z,31.90
2022-08-10T16:32:29.700Z,32.20
2022-08-10T16:36:41.175Z,32.40
2022-08-10T16:40:45.647Z,32.30
2022-08-10T16:44:53.683Z,32.70
2022-08-10T16:48:59.161Z,32.40
2022-08-10T16:53:06.890Z,33.20
2022-08-10T16:57:12.344Z,33.10
2022-08-10T17:01:20.948Z,33.50
2022-08-10T17:06:01.695Z,34.10
2022-08-10T17:09:52.427Z,34.80
2022-08-10T17:13:57.401Z,35.60
2022-08-10T17:18:02.613Z,35.60
2022-08-10T17:22:11.530Z,36.50
2022-08-10T17:26:26.987Z,36.10
2022-08-10T17:30:57.601Z,36.10
2022-08-10T17:35:04.611Z,36.20
2022-08-10T17:39:12.305Z,36.20
2022-08-10T17:43:57.092Z,36.50
2022-08-10T17:47:49.793Z,36.80
2022-08-10T17:51:54.977Z,37.10
2022-08-10T17:56:02.285Z,37.10
2022-08-10T18:00:10.731Z,37.20
2022-08-10T18:04:16.057Z,37.80
2022-08-10T18:08:22.710Z,37.40
2022-08-10T18:12:37.925Z,37.60
2022-08-10T18:16:47.314Z,37.70
2022-08-10T18:20:54.030Z,38.20
2022-08-10T18:24:59.289Z,38.50
2022-08-10T18:29:06.793Z,38.70
2022-08-10T18:33:12.946Z,39.10
2022-08-10T18:37:20.418Z,39.50
2022-08-10T18:41:31.318Z,39.70
2022-08-10T18:45:48.663Z,40.00
2022-08-10T18:50:05.336Z,40.30
2022-08-10T18:54:39.679Z,40.30
2022-08-10T18:59:02.684Z,40.60
2022-08-10T19:03:13.659Z,41.00
2022-08-10T19:08:30.607Z,41.30
2022-08-10T19:12:51.642Z,41.70
2022-08-10T19:17:05.987Z,42.10
2022-08-10T19:21:18.408Z,42.40
2022-08-10T19:26:39.359Z,43.10
2022-08-10T19:30:10.638Z,42.90
2022-08-10T19:34:34.294Z,43.10
2022-08-10T19:38:49.630Z,43.20
2022-08-10T19:43:09.355Z,43.60
2022-08-10T19:47:21.370Z,43.90
2022-08-10T19:51:29.618Z,44.10
2022-08-10T19:55:38.528Z,44.40
2022-08-10T20:00:17.518Z,44.60
2022-08-10T20:04:27.763Z,44.70
2022-08-10T20:08:38.888Z,44.90
2022-08-10T20:12:51.158Z,45.10
2022-08-10T20:17:02.089Z,45.20
2022-08-10T20:21:12.203Z,45.10
2022-08-10T20:25:20.742Z,45.40
2022-08-10T20:29:58.709Z,45.80
2022-08-10T20:34:01.526Z,45.90
2022-08-10T20:38:11.032Z,46.20
2022-08-10T20:42:22.387Z,46.50
2022-08-10T20:46:33.218Z,46.70
2022-08-10T20:50:43.774Z,47.00
2022-08-10T20:55:11.143Z,47.20
2022-08-10T21:00:02.485Z,47.40
2022-08-10T21:04:13.410Z,47.60
2022-08-10T21:08:30.957Z,47.80
2022-08-10T21:12:51.660Z,47.80
2022-08-10T21:17:09.783Z,48.00
2022-08-10T21:21:41.611Z,48.10
2022-08-10T21:25:59.123Z,48.30
2022-08-10T21:30:09.690Z,48.30
2022-08-10T21:34:31.743Z,48.40
2022-08-10T21:38:46.802Z,48.60
2022-08-10T21:43:25.678Z,49.10
2022-08-10T21:48:18.869Z,49.10
2022-08-10T21:52:53.698Z,49.20
2022-08-10T21:57:21.127Z,49.30
2022-08-10T22:01:51.598Z,49.20
2022-08-10T22:06:15.015Z,49.20
2022-08-10T22:10:38.846Z,49.20
2022-08-10T22:15:00.942Z,49.20
2022-08-10T22:19:23.297Z,49.20
2022-08-10T22:24:16.546Z,49.10
2022-08-10T22:28:48.883Z,49.30
2022-08-10T22:33:22.834Z,49.20
2022-08-10T22:38:08.016Z,49.40
2022-08-10T22:42:58.492Z,49.40
2022-08-10T22:47:22.415Z,49.60
2022-08-10T22:51:25.606Z,49.60
2022-08-10T22:55:51.191Z,49.70
2022-08-10T22:59:54.055Z,50.00
2022-08-10T23:03:57.171Z,49.80
2022-08-10T23:08:11.056Z,49.80
2022-08-10T23:12:28.875Z,49.50
2022-08-10T23:16:53.766Z,49.50
2022-08-10T23:20:59.682Z,49.50
2022-08-10T23:25:07.784Z,49.50
2022-08-10T23:29:15.377Z,49.60
2022-08-10T23:33:37.033Z,49.80
2022-08-10T23:37:42.400Z,49.70
2022-08-10T23:41:52.773Z,50.20
2022-08-10T23:45:59.577Z,50.10
2022-08-10T23:50:04.253Z,50.80
2022-08-10T23:54:09.922Z,50.90
2022-08-10T23:58:31.847Z,51.60
